createdAt,value
2019-03-17T00:01:19.267Z,10.90
2019-03-17T00:03:46.699Z,10.90
2019-03-17T00:06:14.148Z,10.90
2019-03-17T00:08:41.605Z,11.00
2019-03-17T00:11:09.037Z,11.00
2019-03-17T00:13:36.476Z,11.00
2019-03-17T00:16:03.941Z,11.00
2019-03-17T00:18:31.371Z,11.00
2019-03-17T00:20:58.853Z,11.00
2019-03-17T00:23:26.291Z,11.00
2019-03-17T00:25:53.735Z,11.00
2019-03-17T00:28:21.168Z,11.00
2019-03-17T00:30:48.665Z,10.90
2019-03-17T00:33:16.121Z,11.00
2019-03-17T00:35:43.565Z,11.00
2019-03-17T00:38:11.018Z,11.00
2019-03-17T00:40:38.481Z,11.00
2019-03-17T00:43:06.131Z,11.00
2019-03-17T00:45:33.484Z,10.90
2019-03-17T00:48:00.946Z,10.90
2019-03-17T00:50:28.393Z,10.90
2019-03-17T00:52:55.821Z,10.90
2019-03-17T00:55:23.282Z,10.90
2019-03-17T00:57:50.713Z,10.90
2019-03-17T01:00:18.291Z,10.90
2019-03-17T01:02:45.731Z,10.90
2019-03-17T01:05:13.199Z,10.90
2019-03-17T01:07:40.640Z,10.90
2019-03-17T01:10:08.222Z,10.90
2019-03-17T01:12:35.628Z,10.90
2019-03-17T01:15:03.976Z,11.00
2019-03-17T01:17:31.434Z,10.90
2019-03-17T01:19:58.905Z,10.90
2019-03-17T01:22:26.390Z,10.80
2019-03-17T01:24:53.840Z,10.80
2019-03-17T01:27:21.339Z,10.80
2019-03-17T01:29:49.104Z,10.70
2019-03-17T01:32:16.642Z,10.70
2019-03-17T01:34:44.088Z,10.70
2019-03-17T01:37:11.690Z,10.70
2019-03-17T01:39:39.167Z,10.70
2019-03-17T01:42:06.612Z,10.70
2019-03-17T01:44:34.173Z,10.70
2019-03-17T01:47:01.603Z,10.70
2019-03-17T01:49:29.050Z,10.70
2019-03-17T01:51:56.507Z,10.60
2019-03-17T01:54:23.944Z,10.60
2019-03-17T01:56:51.375Z,10.70
2019-03-17T01:59:18.948Z,10.60
2019-03-17T02:01:46.387Z,10.60
2019-03-17T02:04:13.825Z,10.60
2019-03-17T02:06:41.276Z,10.60
2019-03-17T02:09:09.026Z,10.50
2019-03-17T02:11:36.453Z,10.60
2019-03-17T02:14:03.914Z,10.60
2019-03-17T02:16:31.352Z,10.50
2019-03-17T02:18:58.808Z,10.50
2019-03-17T02:21:26.264Z,10.50
2019-03-17T02:23:53.785Z,10.50
2019-03-17T02:26:21.218Z,10.40
2019-03-17T02:28:48.697Z,10.40
2019-03-17T02:31:16.133Z,10.40
2019-03-17T02:33:43.571Z,10.40
2019-03-17T02:36:11.017Z,10.30
2019-03-17T02:38:38.457Z,10.30
2019-03-17T02:41:06.322Z,10.40
2019-03-17T02:43:33.772Z,10.40
2019-03-17T02:46:03.036Z,10.40
2019-03-17T02:48:30.592Z,10.40
2019-03-17T02:50:58.028Z,10.40
2019-03-17T02:53:25.461Z,10.40
2019-03-17T02:55:52.904Z,10.40
2019-03-17T02:58:20.394Z,10.40
2019-03-17T03:00:48.020Z,10.40
2019-03-17T03:03:15.464Z,10.30
2019-03-17T03:05:54.647Z,10.30
2019-03-17T03:08:12.136Z,10.30
2019-03-17T03:10:39.456Z,10.20
2019-03-17T03:13:06.889Z,10.20
2019-03-17T03:15:34.306Z,10.10
2019-03-17T03:18:01.929Z,10.00
2019-03-17T03:20:29.349Z,10.00
2019-03-17T03:22:56.790Z,9.90
2019-03-17T03:25:24.266Z,9.90
2019-03-17T03:27:51.708Z,9.80
2019-03-17T03:30:19.129Z,9.80
2019-03-17T03:32:46.485Z,9.80
2019-03-17T03:35:13.949Z,9.70
2019-03-17T03:37:41.362Z,9.70
2019-03-17T03:40:09.048Z,9.70
2019-03-17T03:42:36.486Z,9.70
2019-03-17T03:45:04.689Z,9.70
2019-03-17T03:47:32.150Z,9.70
2019-03-17T03:49:59.579Z,9.60
2019-03-17T03:52:27.013Z,9.70
2019-03-17T03:54:54.463Z,9.70
2019-03-17T03:57:22.056Z,9.60
2019-03-17T03:59:49.537Z,9.60
2019-03-17T04:02:16.960Z,9.60
2019-03-17T04:04:44.514Z,9.60
2019-03-17T04:07:11.944Z,9.50
2019-03-17T04:09:39.372Z,9.50
2019-03-17T04:12:06.820Z,9.50
2019-03-17T04:14:34.265Z,9.50
2019-03-17T04:17:01.722Z,9.50
2019-03-17T04:19:29.184Z,9.40
2019-03-17T04:21:56.620Z,9.40
2019-03-17T04:24:24.067Z,9.30
2019-03-17T04:26:51.559Z,9.30
2019-03-17T04:29:19.201Z,9.30
2019-03-17T04:31:46.618Z,9.20
2019-03-17T04:34:14.080Z,9.10
2019-03-17T04:36:41.512Z,9.10
2019-03-17T04:39:08.940Z,9.00
2019-03-17T04:41:36.421Z,9.00
2019-03-17T04:44:03.852Z,9.00
2019-03-17T04:46:31.320Z,8.90
2019-03-17T04:48:58.841Z,8.90
2019-03-17T04:51:26.528Z,8.90
2019-03-17T04:53:53.943Z,8.80
2019-03-17T04:56:21.373Z,8.80
2019-03-17T04:58:49.001Z,8.80
2019-03-17T05:01:16.433Z,8.80
2019-03-17T05:03:43.873Z,8.70
2019-03-17T05:06:11.319Z,8.70
2019-03-17T05:08:38.735Z,8.60
2019-03-17T05:11:06.181Z,8.60
2019-03-17T05:13:33.596Z,8.60
2019-03-17T05:16:01.040Z,8.60
2019-03-17T05:18:28.510Z,8.60
2019-03-17T05:20:55.958Z,8.50
2019-03-17T05:23:23.400Z,8.50
2019-03-17T05:25:50.872Z,8.50
2019-03-17T05:28:18.457Z,8.40
2019-03-17T05:30:45.885Z,8.40
2019-03-17T05:33:13.340Z,8.40
2019-03-17T05:35:40.787Z,8.40
2019-03-17T05:38:08.224Z,8.40
2019-03-17T05:40:35.689Z,8.40
2019-03-17T05:43:03.124Z,8.40
2019-03-17T05:45:30.559Z,8.40
2019-03-17T05:47:58.026Z,8.40
2019-03-17T05:50:25.669Z,8.30
2019-03-17T05:52:53.097Z,8.30
2019-03-17T05:55:20.565Z,8.30
2019-03-17T05:57:48.104Z,8.40
2019-03-17T06:00:16.557Z,8.40
2019-03-17T06:02:44.005Z,8.30
2019-03-17T06:05:11.466Z,8.30
2019-03-17T06:07:38.888Z,8.40
2019-03-17T06:10:06.360Z,8.30
2019-03-17T06:12:33.797Z,8.30
2019-03-17T06:15:01.284Z,8.30
2019-03-17T06:17:28.732Z,8.30
2019-03-17T06:19:56.167Z,8.30
2019-03-17T06:22:23.604Z,8.40
2019-03-17T06:24:51.043Z,8.30
2019-03-17T06:27:18.632Z,8.40
2019-03-17T06:29:46.087Z,8.30
2019-03-17T06:32:13.507Z,8.40
2019-03-17T06:34:40.953Z,8.40
2019-03-17T06:37:08.400Z,8.40
2019-03-17T06:39:35.834Z,8.40
2019-03-17T06:42:03.255Z,8.40
2019-03-17T06:44:30.723Z,8.50
2019-03-17T06:46:58.252Z,8.50
2019-03-17T06:49:25.707Z,8.50
2019-03-17T06:51:53.151Z,8.40
2019-03-17T06:54:20.568Z,8.50
2019-03-17T06:56:48.002Z,8.50
2019-03-17T06:59:17.641Z,8.50
2019-03-17T07:01:44.708Z,8.40
2019-03-17T07:04:12.139Z,8.40
2019-03-17T07:06:39.591Z,8.50
2019-03-17T07:09:07.030Z,8.50
2019-03-17T07:11:34.456Z,8.40
2019-03-17T07:14:01.891Z,8.40
2019-03-17T07:16:29.333Z,8.40
2019-03-17T07:18:56.774Z,8.40
2019-03-17T07:21:24.163Z,8.40
2019-03-17T07:23:51.487Z,8.50
2019-03-17T07:26:19.035Z,8.40
2019-03-17T07:28:46.351Z,8.50
2019-03-17T07:31:13.790Z,8.50
2019-03-17T07:33:41.221Z,8.60
2019-03-17T07:36:08.677Z,8.60
2019-03-17T07:38:36.009Z,8.60
2019-03-17T07:41:03.467Z,8.60
2019-03-17T07:43:30.945Z,8.60
2019-03-17T07:45:58.373Z,8.60
2019-03-17T07:48:25.815Z,8.80
2019-03-17T07:50:53.270Z,8.80
2019-03-17T07:53:20.691Z,8.80
2019-03-17T07:55:48.349Z,8.80
2019-03-17T07:58:15.778Z,8.80
2019-03-17T08:00:43.349Z,8.80
2019-03-17T08:03:10.918Z,8.80
2019-03-17T08:05:38.566Z,8.80
2019-03-17T08:08:09.812Z,8.90
2019-03-17T08:10:35.249Z,9.00
2019-03-17T08:13:02.717Z,9.10
2019-03-17T08:15:30.205Z,9.10
2019-03-17T08:17:57.645Z,9.10
2019-03-17T08:20:25.106Z,9.00
2019-03-17T08:22:52.548Z,9.00
2019-03-17T08:25:19.988Z,8.80
2019-03-17T08:27:47.448Z,8.60
2019-03-17T08:30:14.979Z,8.60
2019-03-17T08:32:42.405Z,8.60
2019-03-17T08:35:10.146Z,8.70
2019-03-17T08:37:37.685Z,8.90
2019-03-17T08:40:07.216Z,9.00
2019-03-17T08:42:34.691Z,9.10
2019-03-17T08:45:02.137Z,9.20
2019-03-17T08:47:29.916Z,9.30
2019-03-17T08:49:57.633Z,9.30
2019-03-17T08:52:25.208Z,9.50
2019-03-17T08:54:52.668Z,9.60
2019-03-17T08:57:20.780Z,9.60
2019-03-17T08:59:48.309Z,9.60
2019-03-17T09:02:15.798Z,9.70
2019-03-17T09:04:43.223Z,9.80
2019-03-17T09:07:10.607Z,9.90
2019-03-17T09:09:37.989Z,10.10
2019-03-17T09:12:05.555Z,10.10
2019-03-17T09:14:33.252Z,10.00
2019-03-17T09:17:13.459Z,9.90
2019-03-17T09:19:30.757Z,9.90
2019-03-17T09:21:59.879Z,9.80
2019-03-17T09:24:27.885Z,9.90
2019-03-17T09:26:55.516Z,10.00
2019-03-17T09:29:22.993Z,10.10
2019-03-17T09:31:50.499Z,10.10
2019-03-17T09:34:18.266Z,10.00
2019-03-17T09:36:45.851Z,9.90
2019-03-17T09:39:13.623Z,9.70
2019-03-17T09:41:41.308Z,9.50
2019-03-17T09:44:09.011Z,9.40
2019-03-17T09:46:36.777Z,9.60
2019-03-17T09:49:06.618Z,9.80
2019-03-17T09:51:34.573Z,9.90
2019-03-17T09:54:02.108Z,9.90
2019-03-17T09:56:30.012Z,9.90
2019-03-17T09:58:57.442Z,9.90
2019-03-17T10:01:24.872Z,9.90
2019-03-17T10:03:52.970Z,10.00
2019-03-17T10:06:22.560Z,10.20
2019-03-17T10:08:59.284Z,10.20
2019-03-17T10:11:20.367Z,10.20
2019-03-17T10:13:48.459Z,10.20
2019-03-17T10:16:17.108Z,10.40
2019-03-17T10:18:45.135Z,10.60
2019-03-17T10:21:13.262Z,10.80
2019-03-17T10:23:41.432Z,11.00
2019-03-17T10:26:13.213Z,11.10
2019-03-17T10:28:42.004Z,11.10
2019-03-17T10:31:09.765Z,11.20
2019-03-17T10:33:39.054Z,11.30
2019-03-17T10:36:08.393Z,11.10
2019-03-17T10:38:36.021Z,11.10
2019-03-17T10:41:03.492Z,10.90
2019-03-17T10:43:30.948Z,10.70
2019-03-17T10:45:58.608Z,10.70
2019-03-17T10:48:26.051Z,10.80
2019-03-17T10:50:53.502Z,10.80
2019-03-17T10:53:20.937Z,10.80
2019-03-17T10:55:48.590Z,10.60
2019-03-17T10:58:16.007Z,10.40
2019-03-17T11:00:43.435Z,10.30
2019-03-17T11:03:10.889Z,10.20
2019-03-17T11:05:38.335Z,10.00
2019-03-17T11:08:05.752Z,9.80
2019-03-17T11:10:33.199Z,9.90
2019-03-17T11:13:00.628Z,10.10
2019-03-17T11:15:28.056Z,10.40
2019-03-17T11:17:55.492Z,10.70
2019-03-17T11:20:22.962Z,10.90
2019-03-17T11:22:50.378Z,11.20
2019-03-17T11:25:17.944Z,11.40
2019-03-17T11:27:45.451Z,11.60
2019-03-17T11:30:13.226Z,11.70
2019-03-17T11:32:40.660Z,11.70
2019-03-17T11:35:08.138Z,11.70
2019-03-17T11:37:35.750Z,11.60
2019-03-17T11:40:03.976Z,11.40
2019-03-17T11:42:31.287Z,11.40
2019-03-17T11:44:58.715Z,11.40
2019-03-17T11:47:26.152Z,11.30
2019-03-17T11:49:53.496Z,11.20
2019-03-17T11:52:20.944Z,11.00
2019-03-17T11:54:48.504Z,10.90
2019-03-17T11:57:15.939Z,10.90
2019-03-17T11:59:43.412Z,10.90
2019-03-17T12:02:10.976Z,10.90
2019-03-17T12:04:38.408Z,11.00
2019-03-17T12:07:05.845Z,11.20
2019-03-17T12:09:33.315Z,11.30
2019-03-17T12:12:00.791Z,11.40
2019-03-17T12:14:28.225Z,11.50
2019-03-17T12:16:55.677Z,11.60
2019-03-17T12:19:23.108Z,11.40
2019-03-17T12:21:50.576Z,11.10
2019-03-17T12:24:18.164Z,10.80
2019-03-17T12:26:45.646Z,10.50
2019-03-17T12:29:13.082Z,10.20
2019-03-17T12:31:40.528Z,10.10
2019-03-17T12:34:07.972Z,10.00
2019-03-17T12:36:35.422Z,10.00
2019-03-17T12:39:04.876Z,10.10
2019-03-17T12:41:32.302Z,10.20
2019-03-17T12:43:59.791Z,10.30
2019-03-17T12:46:27.248Z,10.40
2019-03-17T12:48:54.704Z,10.50
2019-03-17T12:51:22.077Z,10.50
2019-03-17T12:53:49.601Z,10.60
2019-03-17T12:56:17.076Z,10.80
2019-03-17T12:58:44.641Z,10.90
2019-03-17T13:01:12.159Z,11.00
2019-03-17T13:03:39.606Z,11.30
2019-03-17T13:06:07.050Z,11.50
2019-03-17T13:08:34.496Z,11.50
2019-03-17T13:11:01.966Z,11.10
2019-03-17T13:13:29.413Z,10.50
2019-03-17T13:15:56.853Z,10.10
2019-03-17T13:18:24.292Z,9.70
2019-03-17T13:20:51.766Z,9.40
2019-03-17T13:23:19.292Z,9.20
2019-03-17T13:25:46.816Z,9.10
2019-03-17T13:28:14.410Z,9.00
2019-03-17T13:30:41.841Z,8.80
2019-03-17T13:33:09.296Z,8.70
2019-03-17T13:35:36.770Z,8.60
2019-03-17T13:38:04.240Z,8.50
2019-03-17T13:40:31.812Z,8.30
2019-03-17T13:42:59.298Z,8.30
2019-03-17T13:45:26.762Z,8.20
2019-03-17T13:47:54.186Z,8.20
2019-03-17T13:50:21.671Z,8.20
2019-03-17T13:52:49.140Z,8.20
2019-03-17T13:55:16.674Z,8.30
2019-03-17T13:57:44.354Z,8.40
2019-03-17T14:00:13.328Z,8.50
2019-03-17T14:02:40.796Z,8.60
2019-03-17T14:05:08.514Z,8.70
2019-03-17T14:07:36.069Z,8.90
2019-03-17T14:10:13.907Z,9.00
2019-03-17T14:12:33.853Z,9.00
2019-03-17T14:15:01.308Z,9.00
2019-03-17T14:17:28.764Z,9.00
2019-03-17T14:19:56.440Z,9.10
2019-03-17T14:22:24.095Z,9.20
2019-03-17T14:24:51.546Z,9.20
2019-03-17T14:27:19.039Z,9.20
2019-03-17T14:29:46.396Z,9.20
2019-03-17T14:32:13.892Z,9.30
2019-03-17T14:34:41.459Z,9.30
2019-03-17T14:37:08.907Z,9.30
2019-03-17T14:39:36.349Z,9.30
2019-03-17T14:42:03.808Z,9.40
2019-03-17T14:44:31.257Z,9.50
2019-03-17T14:46:58.760Z,9.70
2019-03-17T14:49:26.147Z,9.70
2019-03-17T14:51:53.590Z,9.80
2019-03-17T14:54:21.351Z,9.80
2019-03-17T14:56:48.824Z,9.70
2019-03-17T14:59:16.277Z,9.70
2019-03-17T15:01:43.703Z,9.60
2019-03-17T15:04:11.176Z,9.60
2019-03-17T15:06:38.590Z,9.50
2019-03-17T15:09:07.032Z,9.40
2019-03-17T15:11:34.476Z,9.40
2019-03-17T15:14:02.164Z,9.30
2019-03-17T15:16:29.562Z,9.40
2019-03-17T15:18:57.244Z,9.50
2019-03-17T15:21:24.688Z,9.60
2019-03-17T15:23:52.133Z,9.70
2019-03-17T15:26:19.583Z,9.70
2019-03-17T15:28:47.011Z,9.40
2019-03-17T15:31:14.514Z,8.80
2019-03-17T15:33:41.973Z,8.10
2019-03-17T15:36:09.409Z,7.40
2019-03-17T15:38:36.865Z,7.00
2019-03-17T15:41:04.327Z,6.70
2019-03-17T15:43:31.766Z,6.50
2019-03-17T15:45:59.226Z,6.30
2019-03-17T15:48:26.749Z,6.40
2019-03-17T15:50:54.181Z,6.40
2019-03-17T15:53:21.625Z,6.40
2019-03-17T15:55:49.207Z,6.30
2019-03-17T15:58:16.557Z,6.30
2019-03-17T16:00:44.010Z,6.20
2019-03-17T16:03:11.571Z,6.20
2019-03-17T16:05:39.441Z,6.10
2019-03-17T16:08:06.860Z,6.20
2019-03-17T16:10:34.292Z,6.20
2019-03-17T16:13:01.725Z,6.10
2019-03-17T16:15:29.368Z,6.00
2019-03-17T16:17:56.796Z,6.00
2019-03-17T16:20:24.239Z,5.80
2019-03-17T16:22:51.683Z,5.70
2019-03-17T16:25:19.289Z,5.70
2019-03-17T16:27:47.127Z,5.60
2019-03-17T16:30:17.003Z,5.60
2019-03-17T16:32:44.410Z,5.70
2019-03-17T16:35:11.996Z,5.70
2019-03-17T16:37:39.476Z,5.80
2019-03-17T16:40:08.660Z,5.80
2019-03-17T16:42:36.199Z,5.80
2019-03-17T16:45:04.901Z,5.90
2019-03-17T16:47:32.348Z,6.00
2019-03-17T16:49:59.893Z,6.00
2019-03-17T16:52:27.350Z,6.10
2019-03-17T16:54:54.785Z,6.10
2019-03-17T16:57:22.378Z,6.20
2019-03-17T16:59:49.820Z,6.20
2019-03-17T17:02:17.260Z,6.20
2019-03-17T17:04:44.705Z,6.30
2019-03-17T17:07:12.140Z,6.30
2019-03-17T17:09:39.591Z,6.30
2019-03-17T17:12:07.045Z,6.40
2019-03-17T17:14:34.485Z,6.40
2019-03-17T17:17:01.957Z,6.40
2019-03-17T17:19:29.481Z,6.40
2019-03-17T17:21:58.697Z,6.30
2019-03-17T17:24:26.205Z,6.30
2019-03-17T17:26:53.673Z,6.20
2019-03-17T17:29:21.117Z,6.20
2019-03-17T17:31:48.582Z,6.20
2019-03-17T17:34:16.077Z,6.10
2019-03-17T17:36:43.507Z,6.10
2019-03-17T17:39:10.960Z,6.10
2019-03-17T17:41:38.385Z,6.00
2019-03-17T17:44:05.816Z,6.00
2019-03-17T17:46:33.256Z,5.90
2019-03-17T17:49:00.746Z,5.90
2019-03-17T17:51:28.320Z,5.90
2019-03-17T17:53:55.941Z,5.90
2019-03-17T17:56:23.424Z,5.90
2019-03-17T17:58:51.036Z,5.90
2019-03-17T18:01:18.737Z,5.90
2019-03-17T18:03:51.598Z,5.90
2019-03-17T18:06:15.869Z,6.00
2019-03-17T18:08:43.439Z,6.00
2019-03-17T18:11:11.106Z,6.00
2019-03-17T18:13:38.550Z,6.00
2019-03-17T18:16:05.995Z,6.00
2019-03-17T18:18:33.453Z,6.00
2019-03-17T18:21:00.854Z,6.00
2019-03-17T18:23:28.307Z,6.00
2019-03-17T18:25:55.768Z,6.00
2019-03-17T18:28:23.212Z,6.00
2019-03-17T18:30:50.656Z,5.90
2019-03-17T18:33:18.198Z,6.00
2019-03-17T18:35:45.597Z,6.00
2019-03-17T18:38:13.026Z,6.10
2019-03-17T18:40:42.347Z,6.10
2019-03-17T18:43:09.697Z,6.20
2019-03-17T18:45:37.112Z,6.10
2019-03-17T18:48:04.599Z,6.10
2019-03-17T18:50:32.012Z,6.10
2019-03-17T18:52:59.461Z,6.10
2019-03-17T18:55:26.894Z,6.00
2019-03-17T18:57:54.338Z,6.00
2019-03-17T19:00:21.818Z,6.00
2019-03-17T19:02:49.236Z,6.00
2019-03-17T19:05:19.514Z,6.10
2019-03-17T19:07:46.024Z,6.10
2019-03-17T19:10:13.786Z,6.10
2019-03-17T19:12:45.881Z,6.10
2019-03-17T19:15:11.747Z,6.20
2019-03-17T19:17:39.278Z,6.20
2019-03-17T19:20:07.811Z,6.30
2019-03-17T19:22:35.248Z,6.30
2019-03-17T19:25:02.910Z,6.40
2019-03-17T19:27:30.852Z,6.40
2019-03-17T19:29:58.208Z,6.40
2019-03-17T19:32:25.645Z,6.30
2019-03-17T19:34:53.228Z,6.30
2019-03-17T19:37:20.662Z,6.30
2019-03-17T19:39:48.215Z,6.40
2019-03-17T19:42:15.687Z,6.30
2019-03-17T19:44:43.116Z,6.30
2019-03-17T19:47:10.573Z,6.10
2019-03-17T19:49:38.019Z,6.00
2019-03-17T19:52:05.504Z,6.00
2019-03-17T19:54:32.954Z,5.90
2019-03-17T19:57:00.514Z,5.90
2019-03-17T19:59:27.964Z,5.90
2019-03-17T20:01:55.417Z,5.90
2019-03-17T20:04:30.488Z,5.90
2019-03-17T20:06:52.164Z,5.80
2019-03-17T20:09:19.584Z,5.70
2019-03-17T20:11:47.001Z,5.70
2019-03-17T20:14:14.579Z,5.50
2019-03-17T20:16:41.995Z,5.50
2019-03-17T20:19:09.431Z,5.40
2019-03-17T20:21:36.880Z,5.30
2019-03-17T20:24:04.309Z,5.20
2019-03-17T20:26:31.810Z,5.20
2019-03-17T20:28:59.292Z,5.20
2019-03-17T20:31:26.717Z,5.10
2019-03-17T20:33:54.162Z,5.00
2019-03-17T20:36:21.906Z,5.00
2019-03-17T20:38:49.356Z,5.00
2019-03-17T20:41:16.905Z,4.90
2019-03-17T20:43:44.352Z,4.90
2019-03-17T20:46:11.793Z,4.90
2019-03-17T20:48:39.496Z,4.90
2019-03-17T20:51:06.863Z,4.90
2019-03-17T20:53:34.304Z,4.80
2019-03-17T20:56:01.957Z,4.90
2019-03-17T20:58:29.346Z,4.80
2019-03-17T21:00:56.909Z,4.80
2019-03-17T21:03:24.352Z,4.80
2019-03-17T21:05:51.811Z,4.80
2019-03-17T21:08:19.309Z,4.80
2019-03-17T21:10:49.903Z,4.70
2019-03-17T21:13:16.501Z,4.70
2019-03-17T21:15:43.940Z,4.70
2019-03-17T21:18:11.417Z,4.70
2019-03-17T21:20:39.034Z,4.70
2019-03-17T21:23:07.151Z,4.60
2019-03-17T21:25:34.940Z,4.60
2019-03-17T21:28:02.791Z,4.60
2019-03-17T21:30:30.293Z,4.60
2019-03-17T21:32:57.762Z,4.60
2019-03-17T21:35:25.204Z,4.60
2019-03-17T21:37:52.688Z,4.60
2019-03-17T21:40:20.168Z,4.60
2019-03-17T21:42:47.701Z,4.60
2019-03-17T21:45:15.138Z,4.50
2019-03-17T21:47:42.565Z,4.50
2019-03-17T21:50:12.098Z,4.50
2019-03-17T21:52:39.417Z,4.40
2019-03-17T21:55:07.060Z,4.40
2019-03-17T21:57:34.507Z,4.40
2019-03-17T22:00:01.940Z,4.40
2019-03-17T22:02:29.417Z,4.40
2019-03-17T22:04:56.847Z,4.50
2019-03-17T22:07:24.283Z,4.40
2019-03-17T22:09:51.747Z,4.40
2019-03-17T22:12:19.359Z,4.40
2019-03-17T22:14:46.789Z,4.40
2019-03-17T22:17:14.243Z,4.40
2019-03-17T22:19:41.700Z,4.40
2019-03-17T22:22:09.214Z,4.30
2019-03-17T22:24:36.593Z,4.40
2019-03-17T22:27:04.042Z,4.30
2019-03-17T22:29:31.553Z,4.30
2019-03-17T22:31:59.134Z,4.30
2019-03-17T22:34:26.576Z,4.30
2019-03-17T22:36:54.025Z,4.30
2019-03-17T22:39:22.962Z,4.30
2019-03-17T22:41:50.475Z,4.30
2019-03-17T22:44:24.107Z,4.30
2019-03-17T22:46:47.152Z,4.30
2019-03-17T22:49:14.610Z,4.30
2019-03-17T22:51:42.063Z,4.30
2019-03-17T22:54:09.498Z,4.30
2019-03-17T22:56:36.932Z,4.30
2019-03-17T22:59:04.391Z,4.20
2019-03-17T23:01:31.811Z,4.20
2019-03-17T23:03:59.255Z,4.30
2019-03-17T23:06:26.786Z,4.20
2019-03-17T23:08:54.166Z,4.20
2019-03-17T23:11:21.575Z,4.20
2019-03-17T23:13:49.102Z,4.20
2019-03-17T23:16:16.536Z,4.20
2019-03-17T23:18:43.971Z,4.20
2019-03-17T23:21:11.418Z,4.20
2019-03-17T23:23:39.555Z,4.20
2019-03-17T23:26:07.145Z,4.10
2019-03-17T23:28:34.568Z,4.10
2019-03-17T23:31:02.171Z,4.10
2019-03-17T23:33:29.605Z,4.10
2019-03-17T23:35:57.087Z,4.10
2019-03-17T23:38:24.555Z,4.10
2019-03-17T23:40:51.998Z,4.10
2019-03-17T23:43:19.556Z,4.10
2019-03-17T23:45:46.988Z,4.10
2019-03-17T23:48:14.423Z,4.10
2019-03-17T23:50:41.873Z,4.20
2019-03-17T23:53:09.297Z,4.20
2019-03-17T23:55:36.729Z,4.30
2019-03-17T23:58:04.198Z,4.30
